createdAt,value
2023-02-03T00:01:18.893Z,48.72
2023-02-03T00:03:46.835Z,51.72
2023-02-03T00:06:15.121Z,56.63
2023-02-03T00:08:43.131Z,48.08
2023-02-03T00:11:11.134Z,48.38
2023-02-03T00:13:39.218Z,44.17
2023-02-03T00:16:07.513Z,41.28
2023-02-03T00:18:35.487Z,37.53
2023-02-03T00:21:03.485Z,39.55
2023-02-03T00:23:32.204Z,40.53
2023-02-03T00:26:14.645Z,39.53
2023-02-03T00:31:23.017Z,43.75
2023-02-03T00:33:56.158Z,38.33
2023-02-03T00:36:25.802Z,37.90
2023-02-03T00:38:54.294Z,44.92
2023-02-03T00:41:22.293Z,47.20
2023-02-03T00:43:50.456Z,43.25
2023-02-03T00:46:18.541Z,42.50
2023-02-03T00:48:46.539Z,44.53
2023-02-03T00:51:14.771Z,52.45
2023-02-03T00:53:42.653Z,44.03
2023-02-03T00:56:12.889Z,40.10
2023-02-03T00:58:42.551Z,38.78
2023-02-03T01:01:11.130Z,38.70
2023-02-03T01:03:39.816Z,39.95
2023-02-03T01:06:19.772Z,36.22
2023-02-03T01:08:49.302Z,35.90
2023-02-03T01:11:22.862Z,30.15
2023-02-03T01:16:22.225Z,35.15
2023-02-03T01:18:51.087Z,32.92
2023-02-03T01:21:24.779Z,34.78
2023-02-03T01:23:53.955Z,27.58
2023-02-03T01:26:47.194Z,27.45
2023-02-03T01:29:15.102Z,27.38
2023-02-03T01:31:43.538Z,38.10
2023-02-03T01:34:13.672Z,32.40
2023-02-03T01:36:41.993Z,29.50
2023-02-03T01:39:10.656Z,38.45
2023-02-03T01:41:39.962Z,36.03
2023-02-03T01:44:32.819Z,33.92
2023-02-03T01:47:01.466Z,34.72
2023-02-03T01:49:36.114Z,40.78
2023-02-03T01:52:05.204Z,36.80
2023-02-03T01:54:43.271Z,33.60
2023-02-03T01:57:17.460Z,40.35
2023-02-03T01:59:46.487Z,38.55
2023-02-03T02:02:14.758Z,40.85
2023-02-03T02:04:56.297Z,44.90
2023-02-03T02:07:50.470Z,36.22
2023-02-03T02:10:19.151Z,39.83
2023-02-03T02:12:49.206Z,37.80
2023-02-03T02:15:18.188Z,41.40
2023-02-03T02:18:04.311Z,43.28
2023-02-03T02:20:54.095Z,38.55
2023-02-03T02:23:25.394Z,37.80
2023-02-03T02:26:31.372Z,41.70
2023-02-03T02:29:06.313Z,37.00
2023-02-03T02:31:48.529Z,28.92
2023-02-03T02:34:35.418Z,34.03
2023-02-03T02:37:49.349Z,33.17
2023-02-03T02:40:31.161Z,30.75
2023-02-03T02:43:20.367Z,34.50
2023-02-03T02:45:56.499Z,36.58
2023-02-03T02:48:37.258Z,37.60
2023-02-03T02:51:10.149Z,42.70
2023-02-03T02:53:44.187Z,40.75
2023-02-03T02:56:15.704Z,39.90
2023-02-03T02:58:48.963Z,38.58
2023-02-03T03:01:18.143Z,33.13
2023-02-03T03:03:46.685Z,37.50
2023-02-03T03:06:23.258Z,41.42
2023-02-03T03:09:00.582Z,42.70
2023-02-03T03:11:37.922Z,43.92
2023-02-03T03:14:09.417Z,37.67
2023-02-03T03:16:39.693Z,37.03
2023-02-03T03:19:15.021Z,39.83
2023-02-03T03:21:52.288Z,38.42
2023-02-03T03:24:26.095Z,37.10
2023-02-03T03:27:08.907Z,37.53
2023-02-03T03:30:02.230Z,39.17
2023-02-03T03:32:33.229Z,34.25
2023-02-03T03:35:03.189Z,27.15
2023-02-03T03:38:06.907Z,34.58
2023-02-03T03:40:43.820Z,25.63
2023-02-03T03:43:23.444Z,34.10
2023-02-03T03:46:15.222Z,40.65
2023-02-03T03:49:00.355Z,34.10
2023-02-03T03:51:59.159Z,36.42
2023-02-03T03:54:30.416Z,38.63
2023-02-03T03:57:10.098Z,38.08
2023-02-03T03:59:41.102Z,35.95
2023-02-03T04:02:09.848Z,45.67
2023-02-03T04:04:40.628Z,48.53
2023-02-03T04:07:08.978Z,38.30
2023-02-03T04:09:37.482Z,46.55
2023-02-03T04:12:06.765Z,38.58
2023-02-03T04:14:38.858Z,41.67
2023-02-03T04:17:07.868Z,38.50
2023-02-03T04:19:36.301Z,41.30
2023-02-03T04:22:04.312Z,36.67
2023-02-03T04:24:32.280Z,37.90
2023-02-03T04:27:00.759Z,31.23
2023-02-03T04:29:29.148Z,32.33
2023-02-03T04:31:57.177Z,26.92
2023-02-03T04:34:25.910Z,30.17
2023-02-03T04:36:54.070Z,30.77
2023-02-03T04:39:22.777Z,28.00
2023-02-03T04:41:50.691Z,32.53
2023-02-03T04:44:18.857Z,31.20
2023-02-03T04:46:47.227Z,29.52
2023-02-03T04:49:15.408Z,27.67
2023-02-03T04:51:44.349Z,29.15
2023-02-03T04:54:12.461Z,25.77
2023-02-03T04:56:40.955Z,27.85
2023-02-03T04:59:09.531Z,26.83
2023-02-03T05:01:37.690Z,29.40
2023-02-03T05:04:05.741Z,25.17
2023-02-03T05:06:34.193Z,24.52
2023-02-03T05:09:02.720Z,28.70
2023-02-03T05:11:30.846Z,32.75
2023-02-03T05:13:59.051Z,33.83
2023-02-03T05:16:27.685Z,30.02
2023-02-03T05:18:55.665Z,28.33
2023-02-03T05:21:23.755Z,28.40
2023-02-03T05:23:51.838Z,25.23
2023-02-03T05:26:20.331Z,28.40
2023-02-03T05:28:48.691Z,25.02
2023-02-03T05:31:16.693Z,37.20
2023-02-03T05:33:44.806Z,34.42
2023-02-03T05:36:12.734Z,29.42
2023-02-03T05:38:42.605Z,34.40
2023-02-03T05:41:40.010Z,73.43
2023-02-03T05:44:08.526Z,121.85
2023-02-03T05:46:36.497Z,66.30
2023-02-03T05:49:05.276Z,37.90
2023-02-03T05:51:33.279Z,39.17
2023-02-03T05:54:01.209Z,29.77
2023-02-03T05:56:29.653Z,35.78
2023-02-03T05:58:58.222Z,32.38
2023-02-03T06:01:26.109Z,33.40
2023-02-03T06:03:54.602Z,34.05
2023-02-03T06:06:23.798Z,36.70
2023-02-03T06:08:56.387Z,39.97
2023-02-03T06:11:26.990Z,29.07
2023-02-03T06:13:56.620Z,28.75
2023-02-03T06:16:26.073Z,32.10
2023-02-03T06:18:59.740Z,35.08
2023-02-03T06:21:28.989Z,33.95
2023-02-03T06:23:57.117Z,34.83
2023-02-03T06:26:26.276Z,28.73
2023-02-03T06:28:54.264Z,31.05
2023-02-03T06:31:22.815Z,28.65
2023-02-03T06:33:51.412Z,37.65
2023-02-03T06:36:19.541Z,28.13
2023-02-03T06:38:48.011Z,30.15
2023-02-03T06:41:16.258Z,35.50
2023-02-03T06:43:44.200Z,38.75
2023-02-03T06:46:12.755Z,37.00
2023-02-03T06:48:40.975Z,40.00
2023-02-03T06:51:09.100Z,38.10
2023-02-03T06:53:37.084Z,34.38
2023-02-03T06:56:05.752Z,30.80
2023-02-03T06:58:33.787Z,27.10
2023-02-03T07:01:02.817Z,36.67
2023-02-03T07:03:31.348Z,42.63
2023-02-03T07:05:59.467Z,43.60
2023-02-03T07:08:27.992Z,39.65
2023-02-03T07:10:56.366Z,30.52
2023-02-03T07:13:25.033Z,26.77
2023-02-03T07:15:53.340Z,31.95
2023-02-03T07:18:47.398Z,28.58
2023-02-03T07:21:14.281Z,34.92
2023-02-03T07:23:42.755Z,38.63
2023-02-03T07:26:11.603Z,43.60
2023-02-03T07:28:39.699Z,46.47
2023-02-03T07:31:10.951Z,37.88
2023-02-03T07:33:39.595Z,38.05
2023-02-03T07:36:08.419Z,50.67
2023-02-03T07:38:38.237Z,46.25
2023-02-03T07:41:06.540Z,45.47
2023-02-03T07:43:34.821Z,36.15
2023-02-03T07:46:03.358Z,46.67
2023-02-03T07:48:31.717Z,44.03
2023-02-03T07:51:00.307Z,40.55
2023-02-03T07:53:28.474Z,46.20
2023-02-03T07:56:01.606Z,40.70
2023-02-03T07:58:31.010Z,42.38
2023-02-03T08:01:00.218Z,40.22
2023-02-03T08:03:28.550Z,37.90
2023-02-03T08:05:56.586Z,40.17
2023-02-03T08:08:24.799Z,35.13
2023-02-03T08:10:55.611Z,37.78
2023-02-03T08:13:23.831Z,39.25
2023-02-03T08:15:51.937Z,37.90
2023-02-03T08:18:20.409Z,39.55
2023-02-03T08:20:49.434Z,31.70
2023-02-03T08:23:17.781Z,30.77
2023-02-03T08:25:45.832Z,24.20
2023-02-03T08:28:13.880Z,29.65
2023-02-03T08:30:42.099Z,35.00
2023-02-03T08:33:10.281Z,28.73
2023-02-03T08:35:39.176Z,29.52
2023-02-03T08:38:33.505Z,30.35
2023-02-03T08:41:02.003Z,32.13
2023-02-03T08:43:30.146Z,32.13
2023-02-03T08:46:03.652Z,31.58
2023-02-03T08:48:31.819Z,30.73
2023-02-03T08:51:01.097Z,31.55
2023-02-03T08:53:29.321Z,30.27
2023-02-03T08:55:57.703Z,35.80
2023-02-03T08:58:25.686Z,32.63
2023-02-03T09:00:55.663Z,33.28
2023-02-03T09:03:23.864Z,31.13
2023-02-03T09:05:52.573Z,35.63
2023-02-03T09:08:21.684Z,32.53
2023-02-03T09:10:49.672Z,30.75
2023-02-03T09:13:17.725Z,31.42
2023-02-03T09:15:45.744Z,31.50
2023-02-03T09:18:14.759Z,27.77
2023-02-03T09:20:43.845Z,27.30
2023-02-03T09:23:12.221Z,28.58
2023-02-03T09:25:40.267Z,26.13
2023-02-03T09:28:08.381Z,22.92
2023-02-03T09:30:36.459Z,28.75
2023-02-03T09:33:05.219Z,22.40
2023-02-03T09:35:33.713Z,25.95
2023-02-03T09:38:02.216Z,25.98
2023-02-03T09:40:36.211Z,23.70
2023-02-03T09:43:33.789Z,22.23
2023-02-03T09:46:22.940Z,27.13
2023-02-03T09:48:57.376Z,27.73
2023-02-03T09:51:54.098Z,25.85
2023-02-03T09:54:53.239Z,29.55
2023-02-03T09:57:24.455Z,29.70
2023-02-03T09:59:56.432Z,28.20
2023-02-03T10:02:30.315Z,25.33
2023-02-03T10:05:35.613Z,23.92
2023-02-03T10:08:21.814Z,25.95
2023-02-03T10:11:10.449Z,38.28
2023-02-03T10:13:50.163Z,42.65
2023-02-03T10:16:24.129Z,30.48
2023-02-03T10:18:55.816Z,28.50
2023-02-03T10:21:36.642Z,27.30
2023-02-03T10:24:11.080Z,24.13
2023-02-03T10:26:41.045Z,27.85
2023-02-03T10:29:23.164Z,29.42
2023-02-03T10:31:51.378Z,21.23
2023-02-03T10:34:20.728Z,27.50
2023-02-03T10:37:03.159Z,28.83
2023-02-03T10:39:44.065Z,21.80
2023-02-03T10:42:13.444Z,16.73
2023-02-03T10:44:47.545Z,20.52
2023-02-03T10:47:16.014Z,21.25
2023-02-03T10:49:45.979Z,23.50
2023-02-03T10:52:30.462Z,26.75
2023-02-03T10:55:01.958Z,22.30
2023-02-03T10:57:31.400Z,21.67
2023-02-03T11:00:30.088Z,19.60
2023-02-03T11:03:15.536Z,18.50
2023-02-03T11:05:44.443Z,14.55
2023-02-03T11:08:17.095Z,13.45
2023-02-03T11:10:45.773Z,16.15
2023-02-03T11:13:21.119Z,14.30
2023-02-03T11:15:59.648Z,13.65
2023-02-03T11:19:05.803Z,15.05
2023-02-03T11:21:43.650Z,15.18
2023-02-03T11:24:25.443Z,15.57
2023-02-03T11:27:19.700Z,23.48
2023-02-03T11:29:52.293Z,29.33
2023-02-03T11:32:24.619Z,16.55
2023-02-03T11:35:03.932Z,18.97
2023-02-03T11:37:43.230Z,19.98
2023-02-03T11:40:11.678Z,17.60
2023-02-03T11:42:58.777Z,18.00
2023-02-03T11:45:42.155Z,18.00
2023-02-03T11:48:25.371Z,19.95
2023-02-03T11:51:39.778Z,17.90
2023-02-03T11:54:41.146Z,19.08
2023-02-03T11:57:50.839Z,14.68
2023-02-03T12:00:29.259Z,14.70
2023-02-03T12:03:17.852Z,16.88
2023-02-03T12:05:52.483Z,39.78
2023-02-03T12:08:20.449Z,53.47
2023-02-03T12:11:09.512Z,31.40
2023-02-03T12:13:57.845Z,37.33
2023-02-03T12:16:29.502Z,20.77
2023-02-03T12:19:16.026Z,21.55
2023-02-03T12:21:54.115Z,20.13
2023-02-03T12:24:22.530Z,18.38
2023-02-03T12:27:15.670Z,17.65
2023-02-03T12:29:51.419Z,17.42
2023-02-03T12:32:43.889Z,14.50
2023-02-03T12:35:33.794Z,17.10
2023-02-03T12:38:30.224Z,18.70
2023-02-03T12:41:08.357Z,14.52
2023-02-03T12:43:52.807Z,17.88
2023-02-03T12:46:53.938Z,14.45
2023-02-03T12:49:27.833Z,18.00
2023-02-03T12:52:18.823Z,15.45
2023-02-03T12:54:54.680Z,18.95
2023-02-03T12:57:36.972Z,18.15
2023-02-03T13:00:27.674Z,17.48
2023-02-03T13:02:58.922Z,14.98
2023-02-03T13:05:54.739Z,17.10
2023-02-03T13:08:54.473Z,15.00
2023-02-03T13:11:47.317Z,23.60
2023-02-03T13:14:27.150Z,16.20
2023-02-03T13:17:01.910Z,19.25
2023-02-03T13:19:40.835Z,17.00
2023-02-03T13:22:14.000Z,20.33
2023-02-03T13:24:59.375Z,19.10
2023-02-03T13:27:46.686Z,26.80
2023-02-03T13:30:30.214Z,17.60
2023-02-03T13:33:32.325Z,20.05
2023-02-03T13:36:00.302Z,21.90
2023-02-03T13:38:38.230Z,18.40
2023-02-03T13:41:28.930Z,20.00
2023-02-03T13:43:59.028Z,17.02
2023-02-03T13:46:31.271Z,16.88
2023-02-03T13:49:02.312Z,20.00
2023-02-03T13:51:38.399Z,19.55
2023-02-03T13:54:14.123Z,17.10
2023-02-03T13:56:42.924Z,18.85
2023-02-03T13:59:14.323Z,15.80
2023-02-03T14:01:43.668Z,18.25
2023-02-03T14:04:27.853Z,15.57
2023-02-03T14:06:59.668Z,18.30
2023-02-03T14:09:34.725Z,16.90
2023-02-03T14:12:50.076Z,17.08
2023-02-03T14:15:31.705Z,18.05
2023-02-03T14:18:22.387Z,16.30
2023-02-03T14:20:57.039Z,15.73
2023-02-03T14:23:38.616Z,16.67
2023-02-03T14:26:14.839Z,17.17
2023-02-03T14:28:45.237Z,11.90
2023-02-03T14:31:16.241Z,16.25
2023-02-03T14:34:00.297Z,13.88
2023-02-03T14:36:41.456Z,13.63
2023-02-03T14:39:22.586Z,20.55
2023-02-03T14:41:56.479Z,14.93
2023-02-03T14:44:33.854Z,13.18
2023-02-03T14:47:01.878Z,16.88
2023-02-03T14:49:51.313Z,18.50
2023-02-03T14:52:45.595Z,17.42
2023-02-03T14:55:28.623Z,17.55
2023-02-03T14:58:04.718Z,19.10
2023-02-03T15:00:37.867Z,21.95
2023-02-03T15:03:12.689Z,15.60
2023-02-03T15:05:55.684Z,11.70
2023-02-03T15:08:36.460Z,11.15
2023-02-03T15:11:34.474Z,13.35
2023-02-03T15:14:19.901Z,14.85
2023-02-03T15:17:04.853Z,13.73
2023-02-03T15:19:40.428Z,16.63
2023-02-03T15:22:24.846Z,16.20
2023-02-03T15:25:04.432Z,15.05
2023-02-03T15:27:33.480Z,12.05
2023-02-03T15:30:19.040Z,14.30
2023-02-03T15:32:57.705Z,10.27
2023-02-03T15:35:29.673Z,12.45
2023-02-03T15:38:04.384Z,14.90
2023-02-03T15:40:49.136Z,12.57
2023-02-03T15:43:43.332Z,14.00
2023-02-03T15:46:28.116Z,17.13
2023-02-03T15:49:04.705Z,19.70
2023-02-03T15:51:44.475Z,15.23
2023-02-03T15:54:14.742Z,17.15
2023-02-03T15:56:45.197Z,19.17
2023-02-03T15:59:23.995Z,38.70
2023-02-03T16:01:54.056Z,26.90
2023-02-03T16:04:24.473Z,36.20
2023-02-03T16:06:55.884Z,45.42
2023-02-03T16:09:27.950Z,28.17
2023-02-03T16:12:24.867Z,28.88
2023-02-03T16:14:55.137Z,23.27
2023-02-03T16:17:41.819Z,27.40
2023-02-03T16:20:13.321Z,29.70
2023-02-03T16:22:47.223Z,24.60
2023-02-03T16:25:18.529Z,29.50
2023-02-03T16:28:25.650Z,28.80
2023-02-03T16:31:22.425Z,28.95
2023-02-03T16:34:09.523Z,35.35
2023-02-03T16:37:01.577Z,28.83
2023-02-03T16:39:48.537Z,29.08
2023-02-03T16:42:37.717Z,30.85
2023-02-03T16:45:36.619Z,25.15
2023-02-03T16:48:24.297Z,26.55
2023-02-03T16:50:54.072Z,30.58
2023-02-03T16:53:30.284Z,31.20
2023-02-03T16:56:02.217Z,29.90
2023-02-03T16:58:30.756Z,28.30
2023-02-03T17:01:01.901Z,46.63
2023-02-03T17:03:32.996Z,31.88
2023-02-03T17:06:12.704Z,43.97
2023-02-03T17:08:42.256Z,48.53
2023-02-03T17:11:19.604Z,49.08
2023-02-03T17:13:48.402Z,45.42
2023-02-03T17:16:19.208Z,46.50
2023-02-03T17:18:47.796Z,48.25
2023-02-03T17:21:23.921Z,47.85
2023-02-03T17:23:52.127Z,52.17
2023-02-03T17:26:20.764Z,50.17
2023-02-03T17:28:48.769Z,47.05
2023-02-03T17:31:19.718Z,45.70
2023-02-03T17:33:51.732Z,46.42
2023-02-03T17:36:21.959Z,55.25
2023-02-03T17:55:37.632Z,117.60
2023-02-03T17:58:07.178Z,125.10
2023-02-03T18:00:35.701Z,157.68
2023-02-03T18:03:03.809Z,123.55
2023-02-03T18:05:32.731Z,135.52
2023-02-03T18:08:05.954Z,134.40
2023-02-03T18:10:40.646Z,158.55
2023-02-03T18:13:09.112Z,154.85
2023-02-03T18:15:38.711Z,155.13
2023-02-03T18:18:07.187Z,120.78
2023-02-03T18:20:35.244Z,132.23
2023-02-03T18:23:03.974Z,98.80
2023-02-03T18:25:35.103Z,95.68
2023-02-03T18:28:03.199Z,103.32
2023-02-03T18:30:31.921Z,92.43
2023-02-03T18:33:02.161Z,95.78
2023-02-03T18:35:30.410Z,104.45
2023-02-03T18:37:58.370Z,119.20
2023-02-03T18:40:26.323Z,118.45
2023-02-03T18:42:56.406Z,164.40
2023-02-03T18:45:24.705Z,154.00
2023-02-03T18:47:52.645Z,144.13
2023-02-03T18:50:21.121Z,155.10
2023-02-03T18:52:53.627Z,161.38
2023-02-03T18:55:22.687Z,170.50
2023-02-03T18:57:51.086Z,147.15
2023-02-03T19:00:20.588Z,149.07
2023-02-03T19:02:50.484Z,88.28
2023-02-03T19:05:18.982Z,71.68
2023-02-03T19:07:47.009Z,70.32
2023-02-03T19:10:15.620Z,70.40
2023-02-03T19:12:43.927Z,69.53
2023-02-03T19:15:12.079Z,65.57
2023-02-03T19:17:40.123Z,69.60
2023-02-03T19:20:08.946Z,63.05
2023-02-03T19:22:37.550Z,68.93
2023-02-03T19:25:06.138Z,64.38
2023-02-03T19:27:34.197Z,71.00
2023-02-03T19:30:02.677Z,92.10
2023-02-03T19:32:33.128Z,100.68
2023-02-03T19:35:01.452Z,129.15
2023-02-03T19:37:31.645Z,84.60
2023-02-03T19:40:00.009Z,87.78
2023-02-03T19:42:28.716Z,108.32
2023-02-03T19:44:57.309Z,122.72
2023-02-03T19:47:25.885Z,132.70
2023-02-03T19:49:54.308Z,123.32
2023-02-03T19:52:22.298Z,97.25
2023-02-03T19:54:53.998Z,62.35
2023-02-03T19:57:22.027Z,123.63
2023-02-03T19:59:50.431Z,70.38
2023-02-03T20:02:43.443Z,80.65
2023-02-03T20:05:12.019Z,85.95
2023-02-03T20:07:41.008Z,110.80
2023-02-03T20:10:10.154Z,125.82
2023-02-03T20:12:38.823Z,76.95
2023-02-03T20:15:07.384Z,105.80
2023-02-03T20:17:36.416Z,93.05
2023-02-03T20:20:05.464Z,134.82
2023-02-03T20:22:34.020Z,145.07
2023-02-03T20:25:03.593Z,142.40
2023-02-03T20:27:32.040Z,133.27
2023-02-03T20:30:00.560Z,134.05
2023-02-03T20:32:28.546Z,133.63
2023-02-03T20:34:56.627Z,123.38
2023-02-03T20:37:25.103Z,124.32
2023-02-03T20:39:53.219Z,111.32
2023-02-03T20:42:21.670Z,151.50
2023-02-03T20:44:49.918Z,123.70
2023-02-03T20:47:22.834Z,104.00
2023-02-03T20:49:51.250Z,86.05
2023-02-03T20:57:23.645Z,106.13
2023-02-03T20:59:52.142Z,101.32
2023-02-03T21:02:31.234Z,99.35
2023-02-03T21:05:02.297Z,94.90
2023-02-03T21:07:31.263Z,106.95
2023-02-03T21:10:00.457Z,127.70
2023-02-03T21:12:29.342Z,118.72
2023-02-03T21:14:57.995Z,87.03
2023-02-03T21:17:27.781Z,62.55
2023-02-03T21:19:56.534Z,72.32
2023-02-03T21:22:27.974Z,61.88
2023-02-03T21:24:58.917Z,63.65
2023-02-03T21:27:32.755Z,72.85
2023-02-03T21:30:06.605Z,79.53
2023-02-03T21:32:38.494Z,74.60
2023-02-03T21:35:37.449Z,85.55
2023-02-03T21:38:45.206Z,81.38
2023-02-03T21:41:17.851Z,64.75
2023-02-03T21:43:54.876Z,72.80
2023-02-03T21:46:29.179Z,59.90
2023-02-03T21:49:00.549Z,59.35
2023-02-03T21:51:34.182Z,61.80
2023-02-03T21:54:17.610Z,57.90
2023-02-03T21:56:45.845Z,57.75
2023-02-03T21:59:19.887Z,53.20
2023-02-03T22:01:48.708Z,54.40
2023-02-03T22:04:17.277Z,52.90
2023-02-03T22:06:49.309Z,53.47
2023-02-03T22:09:26.188Z,50.33
2023-02-03T22:11:54.418Z,64.13
2023-02-03T22:14:22.414Z,55.28
2023-02-03T22:16:50.982Z,55.83
2023-02-03T22:19:24.948Z,54.75
2023-02-03T22:21:53.303Z,56.85
2023-02-03T22:24:21.866Z,68.72
2023-02-03T22:26:51.069Z,66.10
2023-02-03T22:29:19.101Z,64.43
2023-02-03T22:31:48.151Z,64.97
2023-02-03T22:34:16.356Z,66.75
2023-02-03T22:36:44.310Z,65.18
2023-02-03T22:39:15.603Z,63.05
2023-02-03T22:41:43.979Z,62.63
2023-02-03T22:44:17.244Z,58.85
2023-02-03T22:46:45.233Z,63.92
2023-02-03T22:49:13.357Z,53.72
2023-02-03T22:51:41.710Z,57.80
2023-02-03T22:54:09.816Z,54.80
2023-02-03T22:56:37.925Z,53.45
2023-02-03T22:59:05.916Z,54.28
2023-02-03T23:01:34.732Z,55.95
2023-02-03T23:04:02.681Z,53.13
2023-02-03T23:06:30.625Z,52.65
2023-02-03T23:08:58.763Z,50.55
2023-02-03T23:11:26.727Z,51.05
2023-02-03T23:13:54.670Z,49.75
2023-02-03T23:16:22.847Z,52.13
2023-02-03T23:18:51.209Z,52.20
2023-02-03T23:21:19.420Z,47.75
2023-02-03T23:23:47.837Z,47.13
2023-02-03T23:26:15.752Z,47.58
2023-02-03T23:28:44.008Z,52.50
2023-02-03T23:31:12.369Z,48.95
2023-02-03T23:33:40.466Z,46.45
2023-02-03T23:36:08.874Z,50.22
2023-02-03T23:38:37.421Z,44.70
2023-02-03T23:41:05.630Z,42.40
2023-02-03T23:43:33.546Z,44.90
2023-02-03T23:46:01.763Z,45.10
2023-02-03T23:48:30.087Z,47.33
2023-02-03T23:50:58.576Z,51.30
2023-02-03T23:53:27.539Z,49.72
2023-02-03T23:55:55.491Z,50.55
2023-02-03T23:58:23.417Z,51.42
